Terminal Aerodrome Forecast
Issued by NWS

Home | Current Version | Previous Version | Text Only | Print | Product List | Glossary On
Versions: 1 2 3 4 5 6 7 8 9 10 11 12 13 14 15 16 17 18 19 20 21 22 23 24 25 26 27 28 29 30 31 32 33 34 35 36 37
000
FTPA31 PHFO 230500
TAFITO
TAF
PHTO 230540Z 2306/2406 24005KT P6SM VCSH SCT025 BKN045
     FM232100 13008KT P6SM VCSH SCT030 BKN050
     FM240500 23005KT P6SM VCSH SCT025 BKN045=

USA.gov is the U.S. government's official web portal to all federal, state and local government web resources and services.